Time;durP1;ratioP1;P1;durP2;ratioP2;P2;SDS_P1;SDS_P2;PMS_P1;PMS_P2;Temp;Humidity;BMP_temperature;BMP_pressure;BME280_temperature;BME280_humidity;BME280_pressure;Samples;Min_cycle;Max_cycle;Signal;HPM_P1;HPM_P2
2021/10/03 00:00:59;;;;;;;4.67;4.08;;;;;;;9.21;54.33;102298.64;460846;114;922891;-76
2021/10/03 00:02:03;;;;;;;4.99;4.53;;;;;;;9.21;54.37;102287.75;460423;113;922563;-77
2021/10/03 00:03:10;;;;;;;4.69;3.97;;;;;;;9.22;54.37;102294.91;460912;114;930443;-76
2021/10/03 00:04:14;;;;;;;4.61;4.01;;;;;;;9.23;54.38;102283.02;459671;114;922534;-78
2021/10/03 00:05:19;;;;;;;4.92;4.49;;;;;;;9.24;54.38;102292.89;463491;114;923057;-76
2021/10/03 00:06:23;;;;;;;6.93;4.60;;;;;;;9.24;54.32;102295.61;462807;114;930588;-77
2021/10/03 00:07:29;;;;;;;4.16;3.78;;;;;;;9.25;54.30;102296.47;462611;114;922646;-77
2021/10/03 00:08:32;;;;;;;4.11;3.78;;;;;;;9.25;54.35;102293.74;463327;114;923270;-77
2021/10/03 00:09:36;;;;;;;4.54;4.14;;;;;;;9.25;54.41;102293.74;463135;114;922601;-76
2021/10/03 00:10:40;;;;;;;4.35;3.91;;;;;;;9.26;54.43;102290.86;458919;114;930515;-76
2021/10/03 00:11:45;;;;;;;5.58;4.44;;;;;;;9.29;54.42;102300.55;460426;114;923054;-78
2021/10/03 00:12:50;;;;;;;5.23;4.36;;;;;;;9.30;54.42;102292.23;462749;114;922950;-77
2021/10/03 00:13:54;;;;;;;4.43;4.04;;;;;;;9.31;54.36;102293.95;462077;114;922607;-76
2021/10/03 00:14:58;;;;;;;4.19;3.85;;;;;;;9.34;54.24;102292.74;460873;114;922554;-77
2021/10/03 00:16:03;;;;;;;4.32;3.95;;;;;;;9.35;54.21;102289.01;463535;114;923025;-77
2021/10/03 00:17:07;;;;;;;5.73;4.36;;;;;;;9.37;54.24;102297.87;461929;114;923123;-77
2021/10/03 00:18:12;;;;;;;5.58;3.98;;;;;;;9.36;54.36;102297.02;461804;114;923214;-78
2021/10/03 00:19:16;;;;;;;4.42;4.02;;;;;;;9.36;54.39;102297.02;462192;114;930479;-77
2021/10/03 00:20:20;;;;;;;4.58;4.12;;;;;;;9.35;54.38;102306.20;454578;115;922643;-77
2021/10/03 00:21:24;;;;;;;7.52;4.51;;;;;;;9.33;54.41;102301.92;452643;114;922638;-78
2021/10/03 00:22:28;;;;;;;4.36;3.87;;;;;;;9.32;54.55;102302.97;464454;114;923006;-77
2021/10/03 00:23:34;;;;;;;4.59;4.20;;;;;;;9.31;54.60;102310.28;463497;114;923217;-77
2021/10/03 00:24:37;;;;;;;9.74;3.97;;;;;;;9.31;54.69;102307.55;463982;114;923130;-78
2021/10/03 00:25:41;;;;;;;4.49;3.88;;;;;;;9.31;54.58;102302.11;463571;114;923500;-76
2021/10/03 00:26:45;;;;;;;4.55;3.78;;;;;;;9.33;54.55;102310.09;462311;114;930427;-76
2021/10/03 00:27:49;;;;;;;8.98;4.11;;;;;;;9.34;54.50;102306.35;463438;114;922652;-77
2021/10/03 00:28:52;;;;;;;5.29;3.71;;;;;;;9.36;54.41;102298.89;462364;114;923037;-77
2021/10/03 00:29:56;;;;;;;4.90;4.35;;;;;;;9.38;54.35;102299.55;459291;114;930448;-77
2021/10/03 00:30:59;;;;;;;6.20;4.26;;;;;;;9.40;54.32;102300.25;461846;114;930497;-78
2021/10/03 00:32:04;;;;;;;5.65;4.29;;;;;;;9.41;54.27;102302.81;465244;114;922642;-76
2021/10/03 00:33:08;;;;;;;4.09;3.72;;;;;;;9.44;54.20;102301.62;462504;114;923175;-76
2021/10/03 00:34:12;;;;;;;3.84;3.54;;;;;;;9.44;54.12;102297.03;460346;114;922942;-78
2021/10/03 00:35:16;;;;;;;4.46;3.22;;;;;;;9.46;53.96;102295.00;464038;113;922691;-77
2021/10/03 00:36:20;;;;;;;4.74;3.62;;;;;;;9.48;53.86;102292.13;464358;114;930535;-77
2021/10/03 00:37:24;;;;;;;5.64;3.67;;;;;;;9.49;53.75;102294.66;452790;114;923660;-77
2021/10/03 00:38:27;;;;;;;4.29;3.54;;;;;;;9.50;53.70;102292.80;454738;114;930449;-79
2021/10/03 00:39:31;;;;;;;3.75;3.41;;;;;;;9.51;53.62;102287.19;460442;114;922602;-76
2021/10/03 00:40:37;;;;;;;8.56;3.69;;;;;;;9.52;53.57;102291.63;463655;113;922454;-78
2021/10/03 00:41:43;;;;;;;4.00;3.28;;;;;;;9.53;53.47;102289.75;462035;114;930494;-78
2021/10/03 00:42:47;;;;;;;5.19;4.63;;;;;;;9.54;53.44;102292.28;459875;114;923022;-77
2021/10/03 00:43:52;;;;;;;5.82;5.27;;;;;;;9.54;53.40;102295.01;462247;114;922520;-78
2021/10/03 00:44:55;;;;;;;7.83;4.23;;;;;;;9.55;53.41;102288.55;462900;114;922725;-77
2021/10/03 00:45:58;;;;;;;4.64;4.19;;;;;;;9.56;53.28;102287.54;459854;114;930997;-77
2021/10/03 00:47:03;;;;;;;3.92;3.52;;;;;;;9.56;53.22;102282.09;461059;114;922740;-76
2021/10/03 00:48:07;;;;;;;5.15;3.51;;;;;;;9.59;53.19;102294.53;460785;114;930568;-78
2021/10/03 00:49:11;;;;;;;4.35;3.90;;;;;;;9.59;53.14;102287.19;460578;114;922412;-75
2021/10/03 00:50:15;;;;;;;3.89;3.45;;;;;;;9.60;53.14;102288.05;463459;114;922583;-78
2021/10/03 00:51:19;;;;;;;5.33;3.45;;;;;;;9.60;53.12;102283.45;465452;111;930510;-77
2021/10/03 00:52:22;;;;;;;5.10;3.39;;;;;;;9.62;53.12;102291.47;462800;114;923023;-77
2021/10/03 00:53:28;;;;;;;4.09;3.59;;;;;;;9.63;53.10;102287.73;462975;114;930498;-77
2021/10/03 00:54:32;;;;;;;7.99;3.68;;;;;;;9.63;53.07;102290.45;461930;114;922787;-78
2021/10/03 00:55:36;;;;;;;4.95;3.56;;;;;;;9.65;53.08;102284.84;461665;114;922982;-78
2021/10/03 00:56:40;;;;;;;4.54;3.65;;;;;;;9.65;53.10;102293.02;462791;114;922509;-77
2021/10/03 00:57:46;;;;;;;5.57;4.09;;;;;;;9.65;53.11;102291.11;462595;114;930542;-78
2021/10/03 00:58:49;;;;;;;4.23;3.69;;;;;;;9.65;53.07;102295.74;460794;114;922892;-77
2021/10/03 00:59:53;;;;;;;4.56;3.90;;;;;;;9.63;53.13;102282.28;460076;114;922467;-78
2021/10/03 01:00:57;;;;;;;6.07;3.68;;;;;;;9.64;53.18;102286.72;460836;114;930514;-77
2021/10/03 01:02:02;;;;;;;5.08;3.24;;;;;;;9.63;53.18;102283.14;460314;114;923136;-77
2021/10/03 01:03:07;;;;;;;4.95;3.96;;;;;;;9.63;53.22;102285.86;460360;114;922895;-77
2021/10/03 01:04:10;;;;;;;4.94;4.05;;;;;;;9.65;53.30;102293.02;458509;115;924871;-77
2021/10/03 01:05:14;;;;;;;4.25;3.85;;;;;;;9.66;53.36;102291.97;459017;115;930436;-77
2021/10/03 01:06:18;;;;;;;4.32;3.92;;;;;;;9.65;53.40;102282.95;460009;115;922491;-77
2021/10/03 01:07:21;;;;;;;6.08;3.96;;;;;;;9.67;53.40;102285.52;459161;115;922951;-77
2021/10/03 01:08:25;;;;;;;3.91;3.51;;;;;;;9.67;53.35;102282.78;459574;115;931067;-77
2021/10/03 01:09:28;;;;;;;3.66;3.28;;;;;;;9.68;53.30;102289.95;459537;115;930563;-77
2021/10/03 01:10:34;;;;;;;3.89;3.51;;;;;;;9.67;53.24;102289.09;459163;115;922526;-75
2021/10/03 01:11:38;;;;;;;3.81;3.37;;;;;;;9.68;53.18;102290.80;458670;115;922775;-77
2021/10/03 01:12:42;;;;;;;4.72;3.91;;;;;;;9.68;53.20;102292.67;457155;115;930561;-76
2021/10/03 01:13:47;;;;;;;4.11;3.73;;;;;;;9.68;53.23;102289.95;458213;115;922503;-78
2021/10/03 01:14:50;;;;;;;3.82;3.39;;;;;;;9.68;53.18;102289.95;459608;115;922737;-76
2021/10/03 01:15:55;;;;;;;3.88;3.58;;;;;;;9.68;53.14;102289.95;459018;114;923190;-76
2021/10/03 01:16:59;;;;;;;4.70;3.54;;;;;;;9.68;53.11;102295.39;459331;115;930565;-76
2021/10/03 01:18:05;;;;;;;4.91;3.52;;;;;;;9.66;53.08;102291.97;460199;115;922541;-77
2021/10/03 01:19:09;;;;;;;4.27;3.48;;;;;;;9.67;53.03;102293.69;459249;115;930763;-77
2021/10/03 01:20:14;;;;;;;4.91;3.27;;;;;;;9.65;53.00;102295.74;459357;114;922449;-77
2021/10/03 01:21:18;;;;;;;5.53;3.13;;;;;;;9.65;52.97;102293.84;451724;117;923165;-77
2021/10/03 01:22:22;;;;;;;6.13;3.72;;;;;;;9.65;52.95;102295.74;452714;115;930516;-78
2021/10/03 01:23:25;;;;;;;3.90;3.33;;;;;;;9.64;52.96;102297.61;459846;115;930478;-77
2021/10/03 01:24:33;;;;;;;3.65;3.35;;;;;;;9.63;52.94;102291.31;458689;115;923056;-77
2021/10/03 01:25:39;;;;;;;4.36;3.62;;;;;;;9.63;52.95;102304.06;460298;115;922877;-78
2021/10/03 01:26:43;;;;;;;5.03;4.30;;;;;;;9.62;52.90;102295.05;459480;115;922499;-78
2021/10/03 01:27:47;;;;;;;3.96;2.86;;;;;;;9.62;52.86;102292.32;459800;115;922611;-77
2021/10/03 01:28:53;;;;;;;8.54;3.45;;;;;;;9.62;52.86;102295.05;459207;115;930620;-78
2021/10/03 01:29:56;;;;;;;4.01;3.11;;;;;;;9.62;52.86;102303.21;460109;115;922587;-77
2021/10/03 01:31:02;;;;;;;3.98;3.67;;;;;;;9.62;52.85;102297.77;459793;115;923095;-77
2021/10/03 01:32:06;;;;;;;4.02;3.19;;;;;;;9.62;52.85;102299.64;459123;115;930497;-76
2021/10/03 01:33:10;;;;;;;6.96;3.41;;;;;;;9.63;52.80;102298.63;460522;115;923016;-76
2021/10/03 01:34:13;;;;;;;8.20;3.62;;;;;;;9.61;52.80;102301.50;460356;115;923113;-76
2021/10/03 01:35:19;;;;;;;3.52;3.01;;;;;;;9.61;52.79;102295.20;459252;115;930496;-78
2021/10/03 01:36:25;;;;;;;3.97;3.67;;;;;;;9.62;52.77;102296.91;459710;113;930531;-76
2021/10/03 01:37:28;;;;;;;5.48;3.68;;;;;;;9.60;52.76;102294.34;459458;115;922605;-77
2021/10/03 01:38:36;;;;;;;5.48;3.77;;;;;;;9.59;52.87;102298.08;459696;115;922657;-78
2021/10/03 01:39:40;;;;;;;4.12;3.70;;;;;;;9.60;52.91;102294.34;459721;115;922634;-77
2021/10/03 01:40:48;;;;;;;5.25;3.68;;;;;;;9.59;52.94;102294.53;460078;113;923045;-78
2021/10/03 01:41:52;;;;;;;3.98;3.56;;;;;;;9.59;52.95;102291.81;459891;115;923127;-77
2021/10/03 01:42:57;;;;;;;3.97;3.27;;;;;;;9.59;53.01;102289.91;459640;113;923024;-77
2021/10/03 01:44:01;;;;;;;3.84;3.51;;;;;;;9.58;53.03;102287.37;458904;115;923071;-76
2021/10/03 01:45:07;;;;;;;3.65;3.25;;;;;;;9.57;53.03;102289.25;459985;113;922796;-78
2021/10/03 01:46:11;;;;;;;4.00;3.42;;;;;;;9.57;52.93;102286.52;460066;115;922362;-77
2021/10/03 01:47:17;;;;;;;3.70;3.40;;;;;;;9.58;52.86;102290.10;457510;115;923020;-77
2021/10/03 01:48:23;;;;;;;3.51;3.13;;;;;;;9.57;52.84;102289.25;459349;114;923274;-76
2021/10/03 01:49:28;;;;;;;3.54;3.24;;;;;;;9.57;52.81;102291.97;460214;115;930330;-77
2021/10/03 01:50:36;;;;;;;3.18;2.78;;;;;;;9.56;52.83;102287.54;460079;115;923226;-77
2021/10/03 01:51:40;;;;;;;5.12;3.43;;;;;;;9.54;52.83;102289.56;460049;114;922536;-77
2021/10/03 01:52:43;;;;;;;3.34;3.04;;;;;;;9.54;52.85;102289.56;459200;115;922515;-77
2021/10/03 01:53:50;;;;;;;3.36;3.09;;;;;;;9.53;52.87;102293.33;459235;115;930458;-77
2021/10/03 01:54:53;;;;;;;3.82;3.44;;;;;;;9.54;52.86;102283.27;459733;115;923014;-77
2021/10/03 01:55:58;;;;;;;5.62;2.98;;;;;;;9.53;52.87;102293.33;459818;115;922571;-78
2021/10/03 01:57:02;;;;;;;3.83;3.28;;;;;;;9.52;52.91;102288.90;460072;115;922925;-76
2021/10/03 01:58:06;;;;;;;6.27;3.44;;;;;;;9.53;52.88;102297.92;459488;115;922569;-77
2021/10/03 01:59:10;;;;;;;3.26;2.96;;;;;;;9.51;52.90;102289.91;459611;115;922550;-77
2021/10/03 02:00:15;;;;;;;3.59;3.11;;;;;;;9.51;52.94;102284.47;459474;115;924251;-77
2021/10/03 02:01:22;;;;;;;3.99;3.60;;;;;;;9.52;53.00;102288.90;459434;115;922841;-76
2021/10/03 02:02:25;;;;;;;4.24;3.03;;;;;;;9.51;53.09;102289.91;459449;115;922794;-76
2021/10/03 02:03:29;;;;;;;3.44;3.09;;;;;;;9.51;53.12;102284.47;460264;115;922560;-77
2021/10/03 02:04:33;;;;;;;3.65;3.32;;;;;;;9.51;53.15;102292.63;460558;115;922569;-77
2021/10/03 02:05:42;;;;;;;5.67;3.24;;;;;;;9.50;53.21;102290.92;460176;115;922551;-76
2021/10/03 02:06:51;;;;;;;2.97;2.72;;;;;;;9.50;53.24;102290.06;459311;115;922788;-77
2021/10/03 02:07:54;;;;;;;3.70;3.40;;;;;;;9.49;53.28;102285.64;459068;115;923087;-77
2021/10/03 02:08:59;;;;;;;3.08;2.85;;;;;;;9.48;53.37;102287.50;449856;117;922966;-77
2021/10/03 02:10:04;;;;;;;4.15;3.11;;;;;;;9.47;53.43;102285.83;449671;115;930632;-77
2021/10/03 02:11:08;;;;;;;3.47;3.17;;;;;;;9.46;53.50;102281.39;459351;115;922516;-78
2021/10/03 02:12:12;;;;;;;3.85;3.52;;;;;;;9.46;53.55;102292.28;459816;115;922985;-77
2021/10/03 02:13:19;;;;;;;4.31;3.89;;;;;;;9.45;53.54;102285.13;459589;115;922753;-76
2021/10/03 02:14:27;;;;;;;4.40;3.98;;;;;;;9.44;53.55;102283.41;449251;118;922987;-76
2021/10/03 02:15:30;;;;;;;4.44;3.57;;;;;;;9.45;53.62;102281.55;449527;118;922623;-76
2021/10/03 02:16:35;;;;;;;3.71;3.41;;;;;;;9.44;53.68;102286.14;448126;118;922593;-77
2021/10/03 02:17:39;;;;;;;4.25;3.32;;;;;;;9.43;53.71;102284.42;441652;119;922624;-77
2021/10/03 02:18:45;;;;;;;3.88;3.00;;;;;;;9.42;53.75;102288.20;449554;118;922535;-79
2021/10/03 02:19:48;;;;;;;3.22;2.84;;;;;;;9.41;53.76;102278.31;449322;118;930758;-78
2021/10/03 02:20:53;;;;;;;5.00;3.32;;;;;;;9.41;53.80;102275.59;440038;120;923303;-76
2021/10/03 02:22:00;;;;;;;4.37;3.27;;;;;;;9.40;53.81;102276.61;439784;120;922844;-78
2021/10/03 02:23:05;;;;;;;3.78;3.29;;;;;;;9.40;53.86;102276.61;448810;118;922635;-77
2021/10/03 02:24:11;;;;;;;6.63;3.09;;;;;;;9.40;53.89;102286.64;448908;118;922881;-76
2021/10/03 02:25:14;;;;;;;3.27;2.97;;;;;;;9.38;53.90;102278.63;448363;118;922781;-77
2021/10/03 02:26:20;;;;;;;3.17;2.81;;;;;;;9.38;53.92;102288.66;448671;118;924856;-77
2021/10/03 02:27:26;;;;;;;3.94;3.17;;;;;;;9.37;53.96;102285.09;448089;117;923060;-77
2021/10/03 02:28:30;;;;;;;3.07;2.83;;;;;;;9.36;53.94;102274.39;448276;118;923085;-76
2021/10/03 02:29:34;;;;;;;3.76;3.42;;;;;;;9.36;53.94;102283.41;448800;118;922511;-77
2021/10/03 02:30:40;;;;;;;3.59;3.09;;;;;;;9.35;53.92;102276.25;448629;118;922757;-76
2021/10/03 02:31:44;;;;;;;6.36;2.46;;;;;;;9.34;53.93;102282.70;449331;118;923460;-76
2021/10/03 02:32:47;;;;;;;4.12;3.07;;;;;;;9.33;53.90;102283.72;449134;118;922578;-75
2021/10/03 02:33:51;;;;;;;3.09;2.52;;;;;;;9.32;53.93;102283.91;449109;116;930476;-77
2021/10/03 02:34:55;;;;;;;3.42;3.00;;;;;;;9.31;53.94;102283.05;448817;118;922652;-75
2021/10/03 02:35:59;;;;;;;3.78;3.01;;;;;;;9.30;53.97;102284.06;448505;118;922558;-76
2021/10/03 02:37:03;;;;;;;3.61;3.08;;;;;;;9.28;54.00;102280.64;448604;118;930845;-77
2021/10/03 02:38:09;;;;;;;3.84;2.72;;;;;;;9.28;54.03;102277.06;449040;118;930546;-76
2021/10/03 02:39:12;;;;;;;3.52;3.22;;;;;;;9.25;54.03;102280.98;449169;118;922977;-78
2021/10/03 02:40:18;;;;;;;5.52;2.89;;;;;;;9.25;54.05;102280.13;449002;118;922675;-76
2021/10/03 02:41:23;;;;;;;3.56;2.62;;;;;;;9.24;54.08;102286.59;440778;120;922546;-76
2021/10/03 02:42:26;;;;;;;5.54;3.44;;;;;;;9.23;54.08;102287.59;452336;115;922635;-77
2021/10/03 02:43:32;;;;;;;7.08;3.68;;;;;;;9.20;54.10;102283.35;459563;115;922857;-76
2021/10/03 02:44:36;;;;;;;7.85;3.24;;;;;;;9.19;54.20;102284.37;458938;115;922457;-76
2021/10/03 02:45:43;;;;;;;3.79;3.39;;;;;;;9.17;54.21;102281.80;459387;114;922554;-78
2021/10/03 02:46:47;;;;;;;2.89;2.57;;;;;;;9.16;54.22;102285.53;459864;115;922988;-77
2021/10/03 02:47:51;;;;;;;3.09;2.84;;;;;;;9.15;54.26;102280.28;460128;115;922785;-77
2021/10/03 02:48:55;;;;;;;4.61;4.23;;;;;;;9.14;54.28;102282.14;459555;115;922638;-75
2021/10/03 02:49:58;;;;;;;5.27;4.86;;;;;;;9.14;54.27;102278.56;450704;117;930655;-77
2021/10/03 02:51:03;;;;;;;4.51;3.96;;;;;;;9.12;54.31;102281.44;448941;115;923953;-77
2021/10/03 02:52:09;;;;;;;3.85;3.42;;;;;;;9.12;54.33;102277.87;459522;115;923063;-77
2021/10/03 02:53:17;;;;;;;4.93;3.09;;;;;;;9.10;54.32;102275.30;459509;115;922528;-76
2021/10/03 02:54:20;;;;;;;3.91;3.25;;;;;;;9.10;54.38;102272.58;459449;115;922617;-76
2021/10/03 02:55:24;;;;;;;2.97;2.77;;;;;;;9.09;54.43;102278.20;459869;115;922607;-76
2021/10/03 02:56:30;;;;;;;4.79;2.88;;;;;;;9.07;54.40;102272.06;460381;115;922831;-77
2021/10/03 02:57:34;;;;;;;3.85;3.07;;;;;;;9.05;54.43;102279.53;459700;115;922959;-77
2021/10/03 02:58:37;;;;;;;4.26;2.98;;;;;;;9.04;54.48;102275.13;460062;115;922602;-76
2021/10/03 02:59:41;;;;;;;4.42;3.49;;;;;;;9.02;54.51;102283.45;459843;115;930485;-76
2021/10/03 03:00:46;;;;;;;5.56;3.21;;;;;;;9.00;54.52;102280.02;459321;115;922568;-76
2021/10/03 03:01:51;;;;;;;4.32;3.02;;;;;;;8.98;54.56;102273.06;459580;115;930482;-77
2021/10/03 03:02:55;;;;;;;6.59;3.61;;;;;;;8.96;54.62;102275.93;459268;115;922593;-77
2021/10/03 03:03:58;;;;;;;4.73;3.31;;;;;;;8.95;54.66;102273.36;460841;114;922523;-77
2021/10/03 03:05:01;;;;;;;3.37;3.09;;;;;;;8.93;54.67;102276.23;460739;114;930454;-77
2021/10/03 03:06:06;;;;;;;4.47;3.04;;;;;;;8.92;54.70;102277.28;463467;113;922991;-77
2021/10/03 03:07:10;;;;;;;3.58;3.28;;;;;;;8.91;54.71;102282.88;453474;116;930550;-77
2021/10/03 03:08:14;;;;;;;4.26;3.11;;;;;;;8.86;54.86;102280.65;452439;114;922727;-76
2021/10/03 03:09:18;;;;;;;5.34;3.00;;;;;;;8.86;54.86;102280.65;460021;114;930552;-76
2021/10/03 03:10:22;;;;;;;3.32;2.68;;;;;;;8.84;54.83;102276.38;461496;114;922768;-77
2021/10/03 03:11:26;;;;;;;5.21;3.74;;;;;;;8.83;54.92;102280.95;463953;114;923626;-75
2021/10/03 03:12:29;;;;;;;3.32;3.01;;;;;;;8.81;55.03;102279.42;463419;113;930527;-77
2021/10/03 03:13:33;;;;;;;3.52;3.22;;;;;;;8.79;55.13;102279.58;462697;114;922448;-76
2021/10/03 03:14:37;;;;;;;3.54;3.07;;;;;;;8.77;55.19;102279.73;464894;114;922406;-76
2021/10/03 03:15:40;;;;;;;3.58;3.30;;;;;;;8.76;55.26;102283.50;460200;114;930565;-76
2021/10/03 03:16:50;;;;;;;5.89;3.66;;;;;;;8.75;55.32;102276.34;461812;114;923092;-77
2021/10/03 03:17:53;;;;;;;4.52;4.14;;;;;;;8.73;55.36;102281.08;461206;114;922568;-76
2021/10/03 03:18:57;;;;;;;3.96;3.11;;;;;;;8.73;55.38;102272.06;463534;114;922569;-78
2021/10/03 03:20:01;;;;;;;3.70;3.37;;;;;;;8.72;55.39;102279.37;457937;114;930625;-76
2021/10/03 03:21:04;;;;;;;4.42;3.25;;;;;;;8.71;55.46;102283.09;461012;114;922548;-75
2021/10/03 03:22:07;;;;;;;8.38;3.10;;;;;;;8.71;55.49;102274.11;464245;114;930533;-78
2021/10/03 03:23:11;;;;;;;3.39;3.09;;;;;;;8.71;55.48;102280.38;461742;114;923309;-78
2021/10/03 03:24:15;;;;;;;6.07;3.01;;;;;;;8.70;55.47;102275.98;461207;114;923114;-76
2021/10/03 03:25:18;;;;;;;4.35;3.07;;;;;;;8.70;55.46;102280.56;460989;114;930503;-78
2021/10/03 03:26:22;;;;;;;4.28;2.77;;;;;;;8.69;55.46;102281.56;464246;114;930513;-77
2021/10/03 03:27:26;;;;;;;3.54;3.24;;;;;;;8.68;55.49;102280.71;463077;114;922360;-76
2021/10/03 03:28:29;;;;;;;3.66;3.36;;;;;;;8.67;55.46;102280.87;462404;114;925345;-76
2021/10/03 03:29:33;;;;;;;4.24;3.27;;;;;;;8.67;55.50;102278.14;462580;114;922646;-77
2021/10/03 03:30:38;;;;;;;4.59;2.67;;;;;;;8.65;55.47;102281.05;461293;111;922782;-77
2021/10/03 03:31:42;;;;;;;3.25;2.95;;;;;;;8.64;55.49;102287.50;463005;114;922653;-77
2021/10/03 03:32:45;;;;;;;3.00;2.70;;;;;;;8.64;55.47;102281.20;462134;113;923088;-79
2021/10/03 03:33:48;;;;;;;3.31;2.80;;;;;;;8.61;55.46;102276.07;461924;114;922552;-76
2021/10/03 03:34:52;;;;;;;3.71;3.21;;;;;;;8.61;55.47;102281.50;464411;114;922544;-77
2021/10/03 03:35:55;;;;;;;5.66;3.25;;;;;;;8.59;55.44;102273.53;461472;114;922475;-76
2021/10/03 03:36:59;;;;;;;2.80;2.50;;;;;;;8.59;55.46;102276.25;461289;114;922516;-74
2021/10/03 03:38:02;;;;;;;3.06;2.86;;;;;;;8.59;55.45;102275.39;463512;114;923101;-78
2021/10/03 03:39:06;;;;;;;4.18;2.76;;;;;;;8.58;55.40;102271.82;462557;114;930371;-76
2021/10/03 03:40:12;;;;;;;3.17;2.87;;;;;;;8.57;55.36;102275.55;461475;114;930609;-78
2021/10/03 03:41:16;;;;;;;4.13;3.08;;;;;;;8.56;55.38;102273.84;461017;114;930475;-76
2021/10/03 03:42:20;;;;;;;3.26;2.81;;;;;;;8.55;55.44;102274.84;462971;114;922569;-77
2021/10/03 03:43:23;;;;;;;3.54;3.06;;;;;;;8.55;55.46;102280.28;463171;114;922512;-77
2021/10/03 03:44:27;;;;;;;3.98;3.58;;;;;;;8.54;55.50;102275.88;462468;114;922978;-76
2021/10/03 03:45:30;;;;;;;3.13;2.81;;;;;;;8.54;55.53;102275.88;463270;113;923002;-77
2021/10/03 03:46:34;;;;;;;4.83;3.18;;;;;;;8.53;55.56;102278.75;464612;114;922709;-76
2021/10/03 03:47:39;;;;;;;4.90;3.22;;;;;;;8.52;55.56;102286.05;461875;114;923166;-76
2021/10/03 03:48:42;;;;;;;3.64;3.28;;;;;;;8.51;55.53;102283.48;461778;114;922661;-78
2021/10/03 03:49:50;;;;;;;3.37;2.97;;;;;;;8.50;55.51;102276.34;461902;114;923717;-78
2021/10/03 03:50:52;;;;;;;5.52;3.46;;;;;;;8.47;55.59;102282.96;461009;113;922618;-77
2021/10/03 03:51:55;;;;;;;4.15;3.54;;;;;;;8.45;55.64;102284.97;462676;114;922597;-77
2021/10/03 03:52:59;;;;;;;6.35;5.84;;;;;;;8.43;55.61;102284.30;464639;114;930662;-78
2021/10/03 03:54:03;;;;;;;6.54;5.56;;;;;;;8.41;55.63;102285.45;452809;114;923186;-79
2021/10/03 03:55:08;;;;;;;4.71;3.96;;;;;;;8.40;55.69;102287.32;454159;114;922631;-76
2021/10/03 03:56:11;;;;;;;5.16;4.02;;;;;;;8.37;55.74;102293.09;463367;114;930607;-77
2021/10/03 03:57:15;;;;;;;5.39;4.69;;;;;;;8.33;55.97;102291.67;460503;114;922717;-77
2021/10/03 03:58:18;;;;;;;5.53;3.85;;;;;;;8.33;55.97;102291.67;461683;114;930815;-77
2021/10/03 03:59:25;;;;;;;6.32;3.53;;;;;;;8.32;55.92;102293.53;463059;114;930534;-76
2021/10/03 04:00:27;;;;;;;3.44;3.10;;;;;;;8.30;56.02;102287.43;454698;114;922547;-76
2021/10/03 04:01:31;;;;;;;3.56;3.25;;;;;;;8.29;55.92;102282.97;455133;114;922600;-76
2021/10/03 04:02:34;;;;;;;3.47;3.14;;;;;;;8.28;55.89;102285.83;463781;114;922591;-78
2021/10/03 04:03:40;;;;;;;3.99;3.38;;;;;;;8.27;55.99;102286.88;460094;114;930505;-76
2021/10/03 04:04:44;;;;;;;4.28;3.03;;;;;;;8.26;56.05;102290.59;462037;114;923118;-76
2021/10/03 04:05:48;;;;;;;5.23;3.04;;;;;;;8.25;56.11;102294.31;462661;114;923248;-77
2021/10/03 04:06:51;;;;;;;4.48;3.96;;;;;;;8.25;56.21;102287.02;460868;113;923161;-77
2021/10/03 04:07:55;;;;;;;4.69;3.79;;;;;;;8.24;56.20;102290.74;463640;114;930476;-77
2021/10/03 04:08:58;;;;;;;10.72;4.04;;;;;;;8.25;56.13;102297.89;464757;114;922781;-77
2021/10/03 04:10:04;;;;;;;6.57;4.37;;;;;;;8.25;56.07;102297.03;462241;114;930554;-77
2021/10/03 04:11:08;;;;;;;6.90;3.99;;;;;;;8.24;56.00;102296.17;461738;114;930596;-77
2021/10/03 04:12:12;;;;;;;6.09;4.58;;;;;;;8.24;56.01;102300.76;463582;114;922801;-78
2021/10/03 04:13:15;;;;;;;4.56;4.16;;;;;;;8.23;55.95;102296.33;461221;113;930792;-77
2021/10/03 04:14:19;;;;;;;5.91;4.07;;;;;;;8.22;55.95;102300.91;460427;114;922518;-77
2021/10/03 04:15:22;;;;;;;4.72;3.63;;;;;;;8.21;56.04;102301.94;462137;114;930615;-76
2021/10/03 04:16:28;;;;;;;6.90;4.12;;;;;;;8.21;56.05;102301.94;462115;114;922997;-77
2021/10/03 04:17:31;;;;;;;6.56;4.74;;;;;;;8.21;55.99;102295.66;462789;114;922628;-77
2021/10/03 04:18:36;;;;;;;6.42;3.91;;;;;;;8.21;56.02;102301.09;463792;114;930556;-76
2021/10/03 04:19:40;;;;;;;8.82;3.82;;;;;;;8.21;56.09;102307.38;463532;114;923115;-77
2021/10/03 04:20:45;;;;;;;9.02;5.31;;;;;;;8.22;56.18;102300.05;463886;114;922669;-78
2021/10/03 04:21:48;;;;;;;6.91;5.22;;;;;;;8.22;56.18;102300.05;460447;114;930604;-78
2021/10/03 04:22:52;;;;;;;12.08;5.26;;;;;;;8.23;56.13;102301.77;461816;114;922589;-77
2021/10/03 04:23:56;;;;;;;8.21;6.67;;;;;;;8.25;56.14;102302.47;462237;114;922935;-77
2021/10/03 04:24:59;;;;;;;10.31;9.04;;;;;;;8.25;56.14;102299.75;461691;114;922524;-76
2021/10/03 04:26:03;;;;;;;7.27;5.72;;;;;;;8.25;56.16;102305.19;461680;113;922955;-76
2021/10/03 04:27:06;;;;;;;8.08;7.15;;;;;;;8.26;56.02;102310.47;462798;113;923405;-77
2021/10/03 04:28:10;;;;;;;9.52;5.31;;;;;;;8.26;56.05;102301.46;460438;114;922484;-77
2021/10/03 04:29:14;;;;;;;6.94;6.20;;;;;;;8.27;56.03;102305.89;463753;114;922970;-77
2021/10/03 04:30:19;;;;;;;6.88;5.69;;;;;;;8.28;56.04;102304.86;461531;114;922796;-77
2021/10/03 04:31:22;;;;;;;12.47;5.32;;;;;;;8.29;56.06;102306.56;461936;114;930655;-76
2021/10/03 04:32:26;;;;;;;5.53;4.89;;;;;;;8.30;56.05;102302.88;463454;114;922486;-76
2021/10/03 04:33:29;;;;;;;6.59;4.70;;;;;;;8.31;56.13;102307.31;459065;114;923235;-77
2021/10/03 04:34:33;;;;;;;5.92;4.05;;;;;;;8.34;56.14;102306.98;462191;114;923721;-77
2021/10/03 04:35:37;;;;;;;6.69;3.91;;;;;;;8.35;56.09;102306.83;462165;114;922662;-77
2021/10/03 04:36:40;;;;;;;9.85;3.99;;;;;;;8.37;56.06;102309.40;461010;114;922886;-77
2021/10/03 04:37:44;;;;;;;4.99;4.49;;;;;;;8.41;55.99;102301.77;461948;114;922485;-77
2021/10/03 04:38:47;;;;;;;7.91;6.89;;;;;;;8.41;55.99;102301.77;460456;114;930492;-77
2021/10/03 04:39:51;;;;;;;6.67;4.81;;;;;;;8.42;56.00;102311.63;461127;113;922591;-76
2021/10/03 04:40:55;;;;;;;12.08;4.58;;;;;;;8.43;55.97;102306.05;463952;114;922581;-77
2021/10/03 04:41:59;;;;;;;5.13;4.03;;;;;;;8.45;55.97;102306.72;464117;114;930590;-77
2021/10/03 04:43:03;;;;;;;6.34;3.74;;;;;;;8.46;55.98;102303.00;453384;115;926401;-76
2021/10/03 04:44:06;;;;;;;5.03;3.88;;;;;;;8.48;55.95;102311.00;453766;114;922869;-75
2021/10/03 04:45:10;;;;;;;7.15;3.84;;;;;;;8.50;55.92;102311.67;462186;114;923016;-78
2021/10/03 04:46:15;;;;;;;5.61;4.31;;;;;;;8.51;55.82;102311.52;460407;114;930547;-79
2021/10/03 04:47:18;;;;;;;8.87;4.74;;;;;;;8.54;55.77;102307.66;462023;114;922491;-78
2021/10/03 04:48:22;;;;;;;4.78;4.28;;;;;;;8.54;55.77;102308.50;462096;114;930622;-78
2021/10/03 04:49:26;;;;;;;6.36;3.28;;;;;;;8.56;55.75;102308.33;463278;114;922759;-77
2021/10/03 04:50:30;;;;;;;7.99;7.09;;;;;;;8.58;55.70;102314.47;461310;114;922850;-78
2021/10/03 04:51:33;;;;;;;7.98;5.71;;;;;;;8.60;55.66;102312.45;463132;114;922841;-77
2021/10/03 04:52:39;;;;;;;6.75;4.51;;;;;;;8.61;55.55;102309.55;459904;114;922533;-77
2021/10/03 04:53:42;;;;;;;8.16;4.68;;;;;;;8.63;55.41;102306.68;461578;114;922641;-76
2021/10/03 04:54:46;;;;;;;8.59;4.39;;;;;;;8.63;55.32;102310.25;460299;114;922828;-77
2021/10/03 04:55:50;;;;;;;4.42;3.77;;;;;;;8.65;55.31;102308.24;461691;114;922666;-77
2021/10/03 04:56:54;;;;;;;4.78;3.78;;;;;;;8.65;55.22;102308.24;461757;111;930449;-77
2021/10/03 04:57:57;;;;;;;10.24;3.32;;;;;;;8.66;55.16;102309.06;463143;114;922608;-78
2021/10/03 04:59:01;;;;;;;6.12;3.96;;;;;;;8.65;55.10;102308.24;462961;114;930525;-76